createdAt,value
2023-04-05T00:03:25.950Z,50.05
2023-04-05T00:08:32.153Z,50.52
2023-04-05T00:13:37.917Z,50.63
2023-04-05T00:18:46.252Z,50.79
2023-04-05T00:23:54.057Z,50.68
2023-04-05T00:28:59.549Z,50.99
2023-04-05T00:34:06.903Z,50.87
2023-04-05T00:39:12.414Z,50.86
2023-04-05T00:44:18.086Z,51.16
2023-04-05T00:49:23.657Z,51.06
2023-04-05T00:54:30.827Z,51.44
2023-04-05T00:59:36.412Z,51.24
2023-04-05T01:04:45.214Z,51.43
2023-04-05T01:09:59.730Z,51.46
2023-04-05T01:15:05.679Z,51.65
2023-04-05T01:20:13.097Z,51.87
2023-04-05T01:25:37.228Z,51.79
2023-04-05T01:30:45.988Z,51.96
2023-04-05T01:36:11.025Z,51.83
2023-04-05T01:41:17.258Z,52.32
2023-04-05T01:46:24.557Z,52.30
2023-04-05T01:51:31.209Z,52.41
2023-04-05T01:56:38.440Z,52.39
2023-04-05T02:01:43.885Z,52.38
2023-04-05T02:06:49.332Z,52.57
2023-04-05T02:11:54.749Z,52.82
2023-04-05T02:17:01.825Z,53.13
2023-04-05T02:22:08.293Z,53.04
2023-04-05T02:27:13.793Z,53.46
2023-04-05T02:32:19.312Z,53.41
2023-04-05T02:37:26.278Z,53.60
2023-04-05T02:42:31.760Z,53.45
2023-04-05T02:47:37.435Z,53.45
2023-04-05T02:52:43.178Z,54.01
2023-04-05T02:57:48.752Z,53.98
2023-04-05T03:02:56.886Z,53.97
2023-04-05T03:08:02.512Z,54.13
2023-04-05T03:13:11.922Z,54.15
2023-04-05T03:18:20.262Z,53.81
2023-04-05T03:23:30.976Z,53.93
2023-04-05T03:28:36.770Z,54.03
2023-04-05T03:33:44.437Z,54.04
2023-04-05T03:38:51.889Z,54.04
2023-04-05T03:43:59.472Z,54.18
2023-04-05T03:49:05.155Z,54.50
2023-04-05T03:54:10.567Z,54.21
2023-04-05T03:59:16.898Z,54.85
2023-04-05T04:04:22.978Z,54.84
2023-04-05T04:09:29.921Z,55.14
2023-04-05T04:14:37.154Z,54.79
2023-04-05T04:20:00.875Z,54.79
2023-04-05T04:25:20.633Z,54.86
2023-04-05T04:30:35.093Z,54.88
2023-04-05T04:35:47.007Z,55.04
2023-04-05T04:41:12.797Z,54.90
2023-04-05T04:46:24.416Z,55.06
2023-04-05T04:51:35.641Z,55.48
2023-04-05T04:56:41.147Z,55.19
2023-04-05T05:01:47.046Z,55.35
2023-04-05T05:06:54.960Z,55.52
2023-04-05T05:12:01.907Z,55.68
2023-04-05T05:17:08.803Z,55.97
2023-04-05T05:22:14.316Z,55.97
2023-04-05T05:27:19.826Z,56.12
2023-04-05T05:32:25.476Z,56.21
2023-04-05T05:37:32.951Z,56.63
2023-04-05T05:42:38.448Z,56.63
2023-04-05T05:47:44.019Z,57.02
2023-04-05T05:52:49.582Z,56.90
2023-04-05T05:57:55.362Z,57.00
2023-04-05T06:03:04.919Z,56.91
2023-04-05T06:08:10.678Z,57.01
2023-04-05T06:13:16.354Z,56.96
2023-04-05T06:18:22.246Z,56.96
2023-04-05T06:23:27.727Z,56.89
2023-04-05T06:28:33.332Z,56.75
2023-04-05T06:33:38.759Z,56.86
2023-04-05T06:38:44.338Z,56.79
2023-04-05T06:43:49.868Z,56.79
2023-04-05T06:48:55.706Z,56.27
2023-04-05T06:54:01.225Z,56.21
2023-04-05T06:59:06.764Z,55.58
2023-04-05T07:04:12.396Z,55.69
2023-04-05T07:09:18.101Z,55.31
2023-04-05T07:14:24.171Z,54.98
2023-04-05T07:19:29.780Z,55.11
2023-04-05T07:24:35.724Z,54.58
2023-04-05T07:29:44.564Z,54.54
2023-04-05T07:34:51.051Z,54.65
2023-04-05T07:39:58.493Z,53.59
2023-04-05T07:45:04.107Z,53.87
2023-04-05T07:50:12.203Z,53.89
2023-04-05T07:55:17.945Z,53.29
2023-04-05T08:00:23.965Z,53.55
2023-04-05T08:05:29.816Z,52.39
2023-04-05T08:10:36.781Z,52.70
2023-04-05T08:15:42.314Z,51.97
2023-04-05T08:20:52.969Z,52.19
2023-04-05T08:25:58.638Z,52.25
2023-04-05T08:31:04.077Z,51.88
2023-04-05T08:36:11.021Z,51.38
2023-04-05T08:41:21.945Z,51.05
2023-04-05T08:46:30.913Z,51.12
2023-04-05T08:51:39.487Z,50.73
2023-04-05T08:56:49.186Z,50.12
2023-04-05T09:01:56.149Z,48.64
2023-04-05T09:07:04.525Z,49.80
2023-04-05T09:12:10.700Z,49.43
2023-04-05T09:17:21.054Z,48.77
2023-04-05T09:22:26.557Z,48.95
2023-04-05T09:27:32.672Z,46.52
2023-04-05T09:32:38.409Z,47.70
2023-04-05T09:37:47.042Z,47.30
2023-04-05T09:42:54.242Z,47.01
2023-04-05T09:48:00.084Z,47.21
2023-04-05T09:53:15.091Z,47.03
2023-04-05T09:58:22.321Z,46.01
2023-04-05T10:03:28.297Z,46.07
2023-04-05T10:08:34.080Z,46.80
2023-04-05T10:13:41.498Z,46.42
2023-04-05T10:18:49.995Z,44.79
2023-04-05T10:24:04.304Z,45.03
2023-04-05T10:29:13.696Z,43.91
2023-04-05T10:34:34.370Z,44.71
2023-04-05T10:39:45.889Z,44.67
2023-04-05T10:45:00.299Z,43.23
2023-04-05T10:50:10.052Z,43.59
2023-04-05T10:55:18.218Z,43.47
2023-04-05T11:00:24.824Z,42.34
2023-04-05T11:05:33.268Z,42.53
2023-04-05T11:10:43.028Z,42.02
2023-04-05T11:15:50.294Z,41.30
2023-04-05T11:21:09.274Z,41.87
2023-04-05T11:26:14.900Z,41.81
2023-04-05T11:31:23.722Z,40.71
2023-04-05T11:36:35.137Z,40.95
2023-04-05T11:41:40.855Z,41.18
2023-04-05T11:46:48.254Z,41.39
2023-04-05T11:51:54.961Z,40.64
2023-04-05T11:57:00.929Z,41.64
2023-04-05T12:02:09.177Z,40.19
2023-04-05T12:07:17.468Z,40.50
2023-04-05T12:12:25.350Z,40.41
2023-04-05T12:17:42.577Z,40.43
2023-04-05T12:22:49.689Z,39.71
2023-04-05T12:27:55.494Z,40.40
2023-04-05T12:33:03.412Z,41.44
2023-04-05T12:38:10.617Z,40.88
2023-04-05T12:43:17.689Z,39.62
2023-04-05T12:48:27.063Z,40.62
2023-04-05T12:53:34.212Z,39.99
2023-04-05T12:58:40.427Z,39.50
2023-04-05T13:03:48.324Z,39.03
2023-04-05T13:08:53.643Z,40.08
2023-04-05T13:13:59.419Z,38.85
2023-04-05T13:19:04.930Z,38.21
2023-04-05T13:24:12.774Z,38.26
2023-04-05T13:29:17.973Z,38.38
2023-04-05T13:34:23.602Z,38.31
2023-04-05T13:39:29.178Z,38.38
2023-04-05T13:44:34.864Z,38.28
2023-04-05T13:49:40.390Z,38.18
2023-04-05T13:54:45.855Z,38.39
2023-04-05T13:59:51.426Z,37.92
2023-04-05T14:04:57.082Z,38.25
2023-04-05T14:10:02.785Z,37.70
2023-04-05T14:15:09.092Z,37.91
2023-04-05T14:20:14.680Z,37.25
2023-04-05T14:25:21.750Z,37.88
2023-04-05T14:30:27.566Z,37.79
2023-04-05T14:35:33.102Z,37.88
2023-04-05T14:40:39.249Z,38.29
2023-04-05T14:45:46.601Z,37.30
2023-04-05T14:50:52.189Z,37.31
2023-04-05T14:55:57.899Z,37.63
2023-04-05T15:01:03.695Z,37.51
2023-04-05T15:06:09.213Z,37.76
2023-04-05T15:11:14.875Z,37.91
2023-04-05T15:16:20.742Z,38.59
2023-04-05T15:21:27.069Z,38.00
2023-04-05T15:26:32.552Z,38.07
2023-04-05T15:31:38.113Z,37.67
2023-04-05T15:36:43.636Z,37.89
2023-04-05T15:41:49.608Z,37.40
2023-04-05T15:47:05.013Z,37.76
2023-04-05T15:52:11.869Z,37.73
2023-04-05T15:57:17.367Z,38.45
2023-04-05T16:02:22.970Z,38.27
2023-04-05T16:07:28.497Z,38.13
2023-04-05T16:12:34.385Z,36.63
2023-04-05T16:17:39.833Z,37.24
2023-04-05T16:22:46.373Z,36.22
2023-04-05T16:27:52.215Z,36.43
2023-04-05T16:32:59.231Z,36.46
2023-04-05T16:38:07.566Z,36.38
2023-04-05T16:43:13.753Z,36.38
2023-04-05T16:48:19.350Z,36.51
2023-04-05T16:53:26.151Z,36.75
2023-04-05T16:58:31.692Z,36.77
2023-04-05T17:03:37.290Z,36.83
2023-04-05T17:08:42.923Z,36.88
2023-04-05T17:13:48.587Z,36.90
2023-04-05T17:18:54.272Z,37.00
2023-04-05T17:23:59.714Z,37.00
2023-04-05T17:29:05.694Z,37.09
2023-04-05T17:34:13.476Z,37.18
2023-04-05T17:39:19.056Z,37.28
2023-04-05T17:44:24.488Z,37.16
2023-04-05T17:49:30.638Z,38.05
2023-04-05T17:54:37.840Z,38.06
2023-04-05T17:59:43.859Z,38.29
2023-04-05T18:04:50.035Z,38.59
2023-04-05T18:09:55.743Z,38.88
2023-04-05T18:15:01.195Z,39.16
2023-04-05T18:20:07.836Z,39.53
2023-04-05T18:25:13.604Z,39.82
2023-04-05T18:30:19.093Z,40.08
2023-04-05T18:35:24.585Z,40.27
2023-04-05T18:40:30.084Z,40.13
2023-04-05T18:45:40.008Z,40.32
2023-04-05T18:50:46.011Z,40.45
2023-04-05T18:55:54.921Z,40.81
2023-04-05T19:01:04.367Z,41.07
2023-04-05T19:06:12.571Z,41.13
2023-04-05T19:11:18.966Z,41.50
2023-04-05T19:16:24.761Z,41.49
2023-04-05T19:21:31.084Z,41.41
2023-04-05T19:26:37.714Z,41.50
2023-04-05T19:31:43.304Z,41.94
2023-04-05T19:36:49.418Z,42.10
2023-04-05T19:41:54.942Z,42.41
2023-04-05T19:47:01.521Z,42.61
2023-04-05T19:52:09.562Z,43.03
2023-04-05T19:57:18.092Z,43.57
2023-04-05T20:02:29.358Z,44.00
2023-04-05T20:07:36.573Z,44.24
2023-04-05T20:12:42.072Z,45.28
2023-04-05T20:17:50.416Z,45.51
2023-04-05T20:22:56.114Z,45.91
2023-04-05T20:28:01.651Z,46.07
2023-04-05T20:33:10.332Z,46.40
2023-04-05T20:38:16.087Z,46.69
2023-04-05T20:43:21.546Z,47.02
2023-04-05T20:48:27.410Z,47.42
2023-04-05T20:53:33.430Z,47.74
2023-04-05T20:58:40.212Z,47.91
2023-04-05T21:03:45.756Z,48.46
2023-04-05T21:08:51.478Z,48.85
2023-04-05T21:13:56.906Z,49.15
2023-04-05T21:19:02.409Z,49.82
2023-04-05T21:24:08.571Z,50.20
2023-04-05T21:29:14.685Z,50.57
2023-04-05T21:34:20.191Z,50.85
2023-04-05T21:39:25.620Z,51.16
2023-04-05T21:44:31.070Z,51.59
2023-04-05T21:49:36.646Z,52.02
2023-04-05T21:54:42.517Z,52.29
2023-04-05T21:59:48.070Z,52.78
2023-04-05T22:04:53.824Z,52.78
2023-04-05T22:09:59.674Z,53.39
2023-04-05T22:15:06.104Z,53.66
2023-04-05T22:20:12.513Z,54.74
2023-04-05T22:25:18.222Z,54.74
2023-04-05T22:30:23.795Z,54.89
2023-04-05T22:35:29.309Z,55.29
2023-04-05T22:40:34.928Z,55.29
2023-04-05T22:45:40.805Z,55.12
2023-04-05T22:50:46.410Z,55.29
2023-04-05T22:55:52.447Z,55.92
2023-04-05T23:00:57.970Z,56.05
2023-04-05T23:06:03.484Z,56.05
2023-04-05T23:11:08.971Z,55.76
2023-04-05T23:16:14.495Z,56.36
2023-04-05T23:21:20.043Z,56.58
2023-04-05T23:26:25.644Z,56.85
2023-04-05T23:31:31.219Z,56.79
2023-04-05T23:36:36.885Z,57.25
2023-04-05T23:41:42.298Z,57.25
2023-04-05T23:46:47.883Z,57.41
2023-04-05T23:51:53.667Z,58.02
2023-04-05T23:56:59.243Z,58.02
